Main page
METAR-TAF:

METAR-TAF

Airports :

La Chinita International Airport

Maracaibo, Venezuela

latitude: 10-34N, longitude: 071-44W, elevation: 66 m

METAR: missing

Time: 02:09 (06:09 UTC)

Forecast

The report was made 2 hours and 9 minutes ago, at 04:00 UTC
Forecast valid from 25 at 06 UTC to 26 at 06 UTC
Wind 15 kt from the South/Southeast
Visibility 10 km or more
Broken clouds at a height of 1600 ft
Becoming
from 25 at 06 UTC to 25 at 10 UTC
Visibility: 9000 m
Few clouds at a height of 2000 ft
Scattered clouds at a height of 7000 ft
light drizzle

TAF: SVMC 250400Z 2506/2606 15015KT 9999 BKN016 TX36/18Z TN26/09Z BECMG 2506/2510 9000 -DZ FEW020 SCT070

Weather observations and forecasts of more than 4000 airports (METAR and TAF reports).

The available stations are represented by yellow and red dots on the map.

Hover mouse over dot to see the name of the station.

Then click to see weather observations and forecasts.

To change the map : click on the green buttons with a black cross to zoom in, on the green button with a dash to zoom out, or on the green arrows for adjacent maps.


METAR-TAF: